createdAt,value
2022-12-18T00:00:48.396Z,59.10
2022-12-18T00:03:36.435Z,59.29
2022-12-18T00:06:03.145Z,59.56
2022-12-18T00:08:29.538Z,59.83
2022-12-18T00:10:55.929Z,59.82
2022-12-18T00:13:27.616Z,59.98
2022-12-18T00:15:54.488Z,60.06
2022-12-18T00:18:23.136Z,60.15
2022-12-18T00:20:49.453Z,60.44
2022-12-18T00:23:15.856Z,60.50
2022-12-18T00:25:42.259Z,60.91
2022-12-18T00:28:08.740Z,60.81
2022-12-18T00:30:35.124Z,60.83
2022-12-18T00:33:01.476Z,60.76
2022-12-18T00:35:27.935Z,60.79
2022-12-18T00:37:54.345Z,61.13
2022-12-18T00:40:20.683Z,60.93
2022-12-18T00:42:56.265Z,60.86
2022-12-18T00:45:31.142Z,60.99
2022-12-18T00:47:57.724Z,61.01
2022-12-18T00:50:25.166Z,61.27
2022-12-18T00:52:52.389Z,61.48
2022-12-18T00:55:19.123Z,61.37
2022-12-18T00:57:46.998Z,61.39
2022-12-18T01:00:14.885Z,61.66
2022-12-18T01:02:41.806Z,61.71
2022-12-18T01:05:10.362Z,62.18
2022-12-18T01:07:37.304Z,66.93
2022-12-18T01:10:05.447Z,67.98
2022-12-18T01:12:32.083Z,61.47
2022-12-18T01:14:58.811Z,52.71
2022-12-18T01:17:25.573Z,51.37
2022-12-18T01:19:53.577Z,51.08
2022-12-18T01:22:20.006Z,52.08
2022-12-18T01:24:46.615Z,52.70
2022-12-18T01:27:13.016Z,53.57
2022-12-18T01:29:39.944Z,53.86
2022-12-18T01:32:06.388Z,54.98
2022-12-18T01:34:32.908Z,56.15
2022-12-18T01:36:59.232Z,56.02
2022-12-18T01:39:26.201Z,56.52
2022-12-18T01:42:01.728Z,57.18
2022-12-18T01:44:53.226Z,57.58
2022-12-18T01:47:39.613Z,58.09
2022-12-18T01:50:15.398Z,58.45
2022-12-18T01:52:44.480Z,58.88
2022-12-18T01:55:11.738Z,59.37
2022-12-18T01:57:38.711Z,59.52
2022-12-18T02:00:12.985Z,60.01
2022-12-18T02:02:41.372Z,60.33
2022-12-18T02:05:08.561Z,60.11
2022-12-18T02:07:35.047Z,60.20
2022-12-18T02:10:14.025Z,60.40
2022-12-18T02:12:43.067Z,60.47
2022-12-18T02:15:26.026Z,60.72
2022-12-18T02:17:59.286Z,61.00
2022-12-18T02:20:35.696Z,61.26
2022-12-18T02:23:14.416Z,61.06
2022-12-18T02:26:06.399Z,60.99
2022-12-18T02:28:37.147Z,60.84
2022-12-18T02:31:08.283Z,61.40
2022-12-18T02:33:36.508Z,61.47
2022-12-18T02:36:03.749Z,61.26
2022-12-18T02:38:31.881Z,61.19
2022-12-18T02:41:02.844Z,61.39
2022-12-18T02:43:30.103Z,61.56
2022-12-18T02:45:59.850Z,62.07
2022-12-18T02:48:33.768Z,61.71
2022-12-18T02:51:09.349Z,62.00
2022-12-18T02:54:15.467Z,61.76
2022-12-18T02:56:48.625Z,61.65
2022-12-18T02:59:32.371Z,61.84
2022-12-18T03:01:59.700Z,61.92
2022-12-18T03:04:40.495Z,61.78
2022-12-18T03:07:12.978Z,62.06
2022-12-18T03:09:41.993Z,65.57
2022-12-18T03:12:25.351Z,70.87
2022-12-18T03:15:05.345Z,61.79
2022-12-18T03:17:34.114Z,52.09
2022-12-18T03:20:06.759Z,49.61
2022-12-18T03:22:35.597Z,49.97
2022-12-18T03:25:06.750Z,50.72
2022-12-18T03:27:37.662Z,51.32
2022-12-18T03:30:09.280Z,52.12
2022-12-18T03:32:47.748Z,53.55
2022-12-18T03:35:22.332Z,54.31
2022-12-18T03:37:49.314Z,54.74
2022-12-18T03:40:15.881Z,55.63
2022-12-18T03:42:57.907Z,55.85
2022-12-18T03:45:35.131Z,56.18
2022-12-18T03:48:03.947Z,56.70
2022-12-18T03:51:05.296Z,57.10
2022-12-18T03:53:47.219Z,57.66
2022-12-18T03:56:16.380Z,58.11
2022-12-18T03:58:43.945Z,57.96
2022-12-18T04:01:20.827Z,58.43
2022-12-18T04:03:49.471Z,58.76
2022-12-18T04:06:17.674Z,58.91
2022-12-18T04:08:45.386Z,60.03
2022-12-18T04:11:13.492Z,59.92
2022-12-18T04:13:43.082Z,59.95
2022-12-18T04:16:15.399Z,60.25
2022-12-18T04:18:43.154Z,60.20
2022-12-18T04:21:10.640Z,60.71
2022-12-18T04:23:37.825Z,60.82
2022-12-18T04:26:04.751Z,60.78
2022-12-18T04:28:42.273Z,60.86
2022-12-18T04:31:09.247Z,61.02
2022-12-18T04:33:36.014Z,60.91
2022-12-18T04:36:03.776Z,61.05
2022-12-18T04:38:30.405Z,61.05
2022-12-18T04:41:02.668Z,60.99
2022-12-18T04:43:30.064Z,61.31
2022-12-18T04:46:07.297Z,61.50
2022-12-18T04:48:33.941Z,61.36
2022-12-18T04:51:02.962Z,61.51
2022-12-18T04:53:29.319Z,61.53
2022-12-18T04:56:13.500Z,61.51
2022-12-18T04:58:41.661Z,61.58
2022-12-18T05:01:09.050Z,61.55
2022-12-18T05:03:36.628Z,61.78
2022-12-18T05:06:04.225Z,61.72
2022-12-18T05:08:30.743Z,62.08
2022-12-18T05:11:06.677Z,62.06
2022-12-18T05:13:34.222Z,62.09
2022-12-18T05:16:00.929Z,62.12
2022-12-18T05:18:27.515Z,62.17
2022-12-18T05:20:54.754Z,62.26
2022-12-18T05:23:23.146Z,64.45
2022-12-18T05:26:15.491Z,69.75
2022-12-18T05:28:41.957Z,63.97
2022-12-18T05:31:08.414Z,56.46
2022-12-18T05:33:35.661Z,49.81
2022-12-18T05:36:04.572Z,51.43
2022-12-18T05:38:32.579Z,51.27
2022-12-18T05:40:59.700Z,52.63
2022-12-18T05:43:26.920Z,54.27
2022-12-18T05:45:54.371Z,55.21
2022-12-18T05:48:21.291Z,55.28
2022-12-18T05:50:49.021Z,55.74
2022-12-18T05:53:17.485Z,56.66
2022-12-18T05:55:44.606Z,57.55
2022-12-18T05:58:12.917Z,57.80
2022-12-18T06:00:42.833Z,58.02
2022-12-18T06:03:11.155Z,58.34
2022-12-18T06:05:43.699Z,58.76
2022-12-18T06:08:10.903Z,59.82
2022-12-18T06:10:37.882Z,59.93
2022-12-18T06:13:04.989Z,60.06
2022-12-18T06:15:31.646Z,60.91
2022-12-18T06:17:58.054Z,60.61
2022-12-18T06:20:26.916Z,60.68
2022-12-18T06:22:56.961Z,60.70
2022-12-18T06:25:23.465Z,60.76
2022-12-18T06:27:49.829Z,60.97
2022-12-18T06:30:16.253Z,60.92
2022-12-18T06:32:43.029Z,60.95
2022-12-18T06:35:09.452Z,61.36
2022-12-18T06:37:35.785Z,61.69
2022-12-18T06:40:02.381Z,61.29
2022-12-18T06:42:29.475Z,61.29
2022-12-18T06:44:55.930Z,61.39
2022-12-18T06:47:22.320Z,61.40
2022-12-18T06:49:48.685Z,62.10
2022-12-18T06:52:18.014Z,61.94
2022-12-18T06:54:44.719Z,62.12
2022-12-18T06:57:11.486Z,62.05
2022-12-18T06:59:37.829Z,62.15
2022-12-18T07:02:05.009Z,62.02
2022-12-18T07:04:32.308Z,62.00
2022-12-18T07:06:58.703Z,62.00
2022-12-18T07:09:25.173Z,62.12
2022-12-18T07:11:52.535Z,62.06
2022-12-18T07:14:18.974Z,62.09
2022-12-18T07:16:45.484Z,61.87
2022-12-18T07:19:11.860Z,61.84
2022-12-18T07:21:38.411Z,62.02
2022-12-18T07:24:05.839Z,62.09
2022-12-18T07:26:32.837Z,61.81
2022-12-18T07:28:59.189Z,61.78
2022-12-18T07:31:26.000Z,62.05
2022-12-18T07:33:52.635Z,62.01
2022-12-18T07:36:19.674Z,61.74
2022-12-18T07:38:49.951Z,61.42
2022-12-18T07:41:16.918Z,61.29
2022-12-18T07:43:43.840Z,61.72
2022-12-18T07:46:13.975Z,61.44
2022-12-18T07:48:41.635Z,61.44
2022-12-18T07:51:08.661Z,61.65
2022-12-18T07:53:36.309Z,61.55
2022-12-18T07:56:26.381Z,61.63
2022-12-18T07:58:52.810Z,61.47
2022-12-18T08:01:19.274Z,61.44
2022-12-18T08:03:47.901Z,61.90
2022-12-18T08:06:14.630Z,61.84
2022-12-18T08:08:42.452Z,61.90
2022-12-18T08:11:08.870Z,61.95
2022-12-18T08:13:35.313Z,61.79
2022-12-18T08:16:04.825Z,62.03
2022-12-18T08:18:35.974Z,61.69
2022-12-18T08:21:09.979Z,61.80
2022-12-18T08:23:42.082Z,61.93
2022-12-18T08:26:13.363Z,62.06
2022-12-18T08:28:40.458Z,61.85
2022-12-18T08:31:07.999Z,61.65
2022-12-18T08:33:35.213Z,61.73
2022-12-18T08:36:02.243Z,61.29
2022-12-18T08:38:28.936Z,61.16
2022-12-18T08:41:15.074Z,61.27
2022-12-18T08:44:00.938Z,61.28
2022-12-18T08:46:36.499Z,61.33
2022-12-18T08:49:03.751Z,61.38
2022-12-18T08:51:30.603Z,61.45
2022-12-18T08:53:57.325Z,61.45
2022-12-18T08:56:23.699Z,61.67
2022-12-18T08:58:54.432Z,61.49
2022-12-18T09:01:21.489Z,61.42
2022-12-18T09:03:49.533Z,61.78
2022-12-18T09:06:17.609Z,61.54
2022-12-18T09:08:45.080Z,62.09
2022-12-18T09:11:20.152Z,60.69
2022-12-18T09:13:46.633Z,60.06
2022-12-18T09:16:13.201Z,60.05
2022-12-18T09:18:39.887Z,60.66
2022-12-18T09:21:11.246Z,60.37
2022-12-18T09:23:37.695Z,60.51
2022-12-18T09:26:04.666Z,59.94
2022-12-18T09:28:31.022Z,59.93
2022-12-18T09:30:57.821Z,59.85
2022-12-18T09:33:24.433Z,59.71
2022-12-18T09:35:50.908Z,59.80
2022-12-18T09:38:19.758Z,60.18
2022-12-18T09:40:54.601Z,60.11
2022-12-18T09:43:30.832Z,59.74
2022-12-18T09:46:27.900Z,59.51
2022-12-18T09:48:57.796Z,59.92
2022-12-18T09:51:35.646Z,59.84
2022-12-18T09:54:05.900Z,59.69
2022-12-18T09:56:36.173Z,59.50
2022-12-18T09:59:04.375Z,59.17
2022-12-18T10:01:40.186Z,59.24
2022-12-18T10:04:09.961Z,59.01
2022-12-18T10:06:48.967Z,58.83
2022-12-18T10:09:29.169Z,58.55
2022-12-18T10:11:56.138Z,58.89
2022-12-18T10:14:43.724Z,58.89
2022-12-18T10:18:08.971Z,59.03
2022-12-18T10:20:58.638Z,58.97
2022-12-18T10:23:30.429Z,58.75
2022-12-18T10:26:05.390Z,58.50
2022-12-18T10:28:35.254Z,58.66
2022-12-18T10:31:01.879Z,58.57
2022-12-18T10:33:30.461Z,58.58
2022-12-18T10:35:57.720Z,58.33
2022-12-18T10:38:30.244Z,58.14
2022-12-18T10:41:01.560Z,58.05
2022-12-18T10:43:28.000Z,57.89
2022-12-18T10:46:08.357Z,58.04
2022-12-18T10:48:57.358Z,57.77
2022-12-18T10:51:30.298Z,57.47
2022-12-18T10:54:00.045Z,56.71
2022-12-18T10:56:28.744Z,57.05
2022-12-18T10:59:06.333Z,55.93
2022-12-18T11:01:56.297Z,55.42
2022-12-18T11:04:25.413Z,55.35
2022-12-18T11:07:07.571Z,56.12
2022-12-18T11:09:36.830Z,55.66
2022-12-18T11:12:20.468Z,55.44
2022-12-18T11:14:51.973Z,56.29
2022-12-18T11:17:25.917Z,56.35
2022-12-18T11:19:57.526Z,55.86
2022-12-18T11:22:27.894Z,56.42
2022-12-18T11:25:32.598Z,56.45
2022-12-18T11:27:56.204Z,56.45
2022-12-18T11:30:28.682Z,56.24
2022-12-18T11:33:09.964Z,56.11
2022-12-18T11:35:46.165Z,56.22
2022-12-18T11:38:27.620Z,56.09
2022-12-18T11:41:50.455Z,56.05
2022-12-18T11:44:43.366Z,56.36
2022-12-18T11:47:31.709Z,56.32
2022-12-18T11:50:01.645Z,56.21
2022-12-18T11:52:37.572Z,56.26
2022-12-18T11:55:23.599Z,56.38
2022-12-18T11:58:27.872Z,56.36
2022-12-18T12:01:06.443Z,56.14
2022-12-18T12:03:41.104Z,55.72
2022-12-18T12:06:24.926Z,56.14
2022-12-18T12:08:54.814Z,56.39
2022-12-18T12:11:33.348Z,56.40
2022-12-18T12:14:24.896Z,56.16
2022-12-18T12:17:23.825Z,56.23
2022-12-18T12:20:13.506Z,56.46
2022-12-18T12:22:50.287Z,56.84
2022-12-18T12:25:50.290Z,56.80
2022-12-18T12:28:49.001Z,56.87
2022-12-18T12:31:21.469Z,57.35
2022-12-18T12:34:01.893Z,57.35
2022-12-18T12:36:50.284Z,57.73
2022-12-18T12:39:20.957Z,57.90
2022-12-18T12:42:06.238Z,57.77
2022-12-18T12:44:38.892Z,57.70
2022-12-18T12:47:17.265Z,57.62
2022-12-18T12:49:48.071Z,57.47
2022-12-18T12:52:18.537Z,57.40
2022-12-18T12:54:45.898Z,57.54
2022-12-18T12:57:18.669Z,57.63
2022-12-18T13:00:06.387Z,57.66
2022-12-18T13:02:45.661Z,57.80
2022-12-18T13:05:24.105Z,57.63
2022-12-18T13:07:55.151Z,57.48
2022-12-18T13:10:31.549Z,57.74
2022-12-18T13:13:13.364Z,57.72
2022-12-18T13:15:41.410Z,57.77
2022-12-18T13:18:09.675Z,57.68
2022-12-18T13:20:40.566Z,57.75
2022-12-18T13:23:25.061Z,57.81
2022-12-18T13:25:59.761Z,57.79
2022-12-18T13:28:45.695Z,57.84
2022-12-18T13:31:14.071Z,57.86
2022-12-18T13:34:24.724Z,57.65
2022-12-18T13:36:33.983Z,57.57
2022-12-18T13:39:34.909Z,57.72
2022-12-18T13:42:05.283Z,57.73
2022-12-18T13:44:38.544Z,57.93
2022-12-18T13:47:33.128Z,57.98
2022-12-18T13:50:00.807Z,58.18
2022-12-18T13:52:36.043Z,58.39
2022-12-18T13:55:07.607Z,58.41
2022-12-18T13:57:38.918Z,58.70
2022-12-18T14:00:20.856Z,58.97
2022-12-18T14:02:47.482Z,58.97
2022-12-18T14:05:34.727Z,59.08
2022-12-18T14:08:05.973Z,59.16
2022-12-18T14:10:47.751Z,59.29
2022-12-18T14:13:42.179Z,59.26
2022-12-18T14:16:14.389Z,59.32
2022-12-18T14:18:45.713Z,59.75
2022-12-18T14:21:38.308Z,59.74
2022-12-18T14:24:09.146Z,60.03
2022-12-18T14:26:35.540Z,60.06
2022-12-18T14:29:19.258Z,60.08
2022-12-18T14:31:45.982Z,60.64
2022-12-18T14:34:19.713Z,60.92
2022-12-18T14:36:56.617Z,60.80
2022-12-18T14:39:24.204Z,60.96
2022-12-18T14:41:52.543Z,61.11
2022-12-18T14:44:19.000Z,61.54
2022-12-18T14:46:46.605Z,61.67
2022-12-18T14:49:26.829Z,61.95
2022-12-18T14:51:56.074Z,61.89
2022-12-18T14:54:23.872Z,62.00
2022-12-18T14:57:26.712Z,61.81
2022-12-18T14:59:53.091Z,61.84
2022-12-18T15:02:27.908Z,61.96
2022-12-18T15:05:13.339Z,62.17
2022-12-18T15:07:53.557Z,62.26
2022-12-18T15:10:21.763Z,62.22
2022-12-18T15:13:01.445Z,65.99
2022-12-18T15:15:34.383Z,69.25
2022-12-18T15:18:04.308Z,60.34
2022-12-18T15:20:31.952Z,51.63
2022-12-18T15:22:58.394Z,51.07
2022-12-18T15:25:39.940Z,52.31
2022-12-18T15:28:34.120Z,53.78
2022-12-18T15:31:10.071Z,54.91
2022-12-18T15:33:40.108Z,56.44
2022-12-18T15:36:12.160Z,57.76
2022-12-18T15:38:38.680Z,59.00
2022-12-18T15:41:11.578Z,59.85
2022-12-18T15:43:41.171Z,60.03
2022-12-18T15:46:16.036Z,61.09
2022-12-18T15:48:44.752Z,61.73
2022-12-18T15:51:17.848Z,64.93
2022-12-18T15:53:45.424Z,69.84
2022-12-18T15:56:32.682Z,63.37
2022-12-18T15:59:01.057Z,53.79
2022-12-18T16:01:29.934Z,51.05
2022-12-18T16:03:56.931Z,52.20
2022-12-18T16:06:23.452Z,53.78
2022-12-18T16:08:50.105Z,54.89
2022-12-18T16:11:38.227Z,55.98
2022-12-18T16:14:28.422Z,57.04
2022-12-18T16:17:05.911Z,57.63
2022-12-18T16:19:32.261Z,58.88
2022-12-18T16:21:58.930Z,60.01
2022-12-18T16:24:28.620Z,61.35
2022-12-18T16:26:57.109Z,65.23
2022-12-18T16:29:27.155Z,67.10
2022-12-18T16:31:57.327Z,62.46
2022-12-18T16:34:29.999Z,52.36
2022-12-18T16:37:03.323Z,50.86
2022-12-18T16:39:34.270Z,52.27
2022-12-18T16:42:12.828Z,54.37
2022-12-18T16:44:39.145Z,55.39
2022-12-18T16:47:05.460Z,57.33
2022-12-18T16:49:33.013Z,57.96
2022-12-18T16:52:03.573Z,58.91
2022-12-18T16:54:30.078Z,59.67
2022-12-18T16:56:57.078Z,60.73
2022-12-18T16:59:23.471Z,61.13
2022-12-18T17:01:50.457Z,61.49
2022-12-18T17:04:17.814Z,62.38
2022-12-18T17:06:51.015Z,67.88
2022-12-18T17:09:22.497Z,66.60
2022-12-18T17:11:48.891Z,59.59
2022-12-18T17:14:17.805Z,52.21
2022-12-18T17:16:45.877Z,52.26
2022-12-18T17:19:17.142Z,53.30
2022-12-18T17:21:46.558Z,55.08
2022-12-18T17:24:12.895Z,56.61
2022-12-18T17:26:39.370Z,58.02
2022-12-18T17:29:05.788Z,59.37
2022-12-18T17:31:33.769Z,59.70
2022-12-18T17:34:02.454Z,60.35
2022-12-18T17:36:31.591Z,61.17
2022-12-18T17:39:00.293Z,61.33
2022-12-18T17:41:27.809Z,61.61
2022-12-18T17:43:59.181Z,62.19
2022-12-18T17:46:26.728Z,67.36
2022-12-18T17:48:57.059Z,68.79
2022-12-18T17:51:23.748Z,60.45
2022-12-18T17:53:50.338Z,51.80
2022-12-18T17:56:19.341Z,51.11
2022-12-18T17:58:47.266Z,52.57
2022-12-18T18:01:15.523Z,54.23
2022-12-18T18:03:44.022Z,55.89
2022-12-18T18:06:11.220Z,56.93
2022-12-18T18:08:37.773Z,57.85
2022-12-18T18:11:24.339Z,59.32
2022-12-18T18:14:00.330Z,59.93
2022-12-18T18:16:34.572Z,60.63
2022-12-18T18:19:03.483Z,61.76
2022-12-18T18:21:30.829Z,62.07
2022-12-18T18:24:04.423Z,66.16
2022-12-18T18:26:32.482Z,69.01
2022-12-18T18:29:00.454Z,63.27
2022-12-18T18:31:30.279Z,53.20
2022-12-18T18:33:57.319Z,50.86
2022-12-18T18:36:24.085Z,52.10
2022-12-18T18:38:51.309Z,54.06
2022-12-18T18:41:18.622Z,55.12
2022-12-18T18:43:45.458Z,56.16
2022-12-18T18:46:14.221Z,57.01
2022-12-18T18:48:43.660Z,58.24
2022-12-18T18:51:14.612Z,58.77
2022-12-18T18:53:49.202Z,59.74
2022-12-18T18:56:45.620Z,61.06
2022-12-18T18:59:04.127Z,63.48
2022-12-18T19:01:30.570Z,68.34
2022-12-18T19:03:57.161Z,63.45
2022-12-18T19:06:25.828Z,55.47
2022-12-18T19:08:54.852Z,50.91
2022-12-18T19:11:41.769Z,52.38
2022-12-18T19:14:10.267Z,53.81
2022-12-18T19:16:37.051Z,55.46
2022-12-18T19:19:03.789Z,56.60
2022-12-18T19:21:31.863Z,58.14
2022-12-18T19:24:01.837Z,59.00
2022-12-18T19:26:28.863Z,59.51
2022-12-18T19:29:03.308Z,60.20
2022-12-18T19:31:35.137Z,60.72
2022-12-18T19:34:04.365Z,61.50
2022-12-18T19:36:34.600Z,61.84
2022-12-18T19:39:02.207Z,66.07
2022-12-18T19:41:31.277Z,67.72
2022-12-18T19:43:58.459Z,61.19
2022-12-18T19:46:24.882Z,53.79
2022-12-18T19:48:51.684Z,51.73
2022-12-18T19:51:23.664Z,53.38
2022-12-18T19:53:56.390Z,55.04
2022-12-18T19:56:26.860Z,56.45
2022-12-18T19:58:53.739Z,57.86
2022-12-18T20:01:22.413Z,59.45
2022-12-18T20:03:52.576Z,60.45
2022-12-18T20:06:26.478Z,60.75
2022-12-18T20:08:54.651Z,60.94
2022-12-18T20:11:26.271Z,61.69
2022-12-18T20:13:52.647Z,62.23
2022-12-18T20:16:19.144Z,68.03
2022-12-18T20:18:45.568Z,68.14
2022-12-18T20:21:14.020Z,60.20
2022-12-18T20:23:41.482Z,53.40
2022-12-18T20:26:08.737Z,51.70
2022-12-18T20:28:35.527Z,52.43
2022-12-18T20:31:05.757Z,54.05
2022-12-18T20:33:32.615Z,55.28
2022-12-18T20:36:01.684Z,56.68
2022-12-18T20:38:29.507Z,58.02
2022-12-18T20:40:58.797Z,58.95
2022-12-18T20:43:25.265Z,60.38
2022-12-18T20:46:00.337Z,61.16
2022-12-18T20:48:27.712Z,61.90
2022-12-18T20:51:07.429Z,65.93
2022-12-18T20:53:34.796Z,69.77
2022-12-18T20:56:06.431Z,65.29
2022-12-18T20:58:33.001Z,53.44
2022-12-18T21:01:03.564Z,50.99
2022-12-18T21:03:30.184Z,52.21
2022-12-18T21:05:56.627Z,53.89
2022-12-18T21:08:23.033Z,54.69
2022-12-18T21:10:49.325Z,55.29
2022-12-18T21:13:16.469Z,56.33
2022-12-18T21:15:43.588Z,58.15
2022-12-18T21:18:10.407Z,58.92
2022-12-18T21:20:36.934Z,59.71
2022-12-18T21:23:14.267Z,60.28
2022-12-18T21:25:42.989Z,61.11
2022-12-18T21:28:09.294Z,61.04
2022-12-18T21:30:35.693Z,61.63
2022-12-18T21:33:02.265Z,64.49
2022-12-18T21:35:28.568Z,68.66
2022-12-18T21:37:58.407Z,61.70
2022-12-18T21:40:24.816Z,54.44
2022-12-18T21:43:10.340Z,51.63
2022-12-18T21:45:40.291Z,52.66
2022-12-18T21:48:06.845Z,54.67
2022-12-18T21:50:33.150Z,55.85
2022-12-18T21:52:59.528Z,57.23
2022-12-18T21:55:25.901Z,58.35
2022-12-18T21:57:54.067Z,59.50
2022-12-18T22:00:20.552Z,59.69
2022-12-18T22:02:48.745Z,60.92
2022-12-18T22:05:35.149Z,61.06
2022-12-18T22:08:01.459Z,61.27
2022-12-18T22:10:27.983Z,62.17
2022-12-18T22:12:55.116Z,64.88
2022-12-18T22:15:22.041Z,68.62
2022-12-18T22:17:52.688Z,62.66
2022-12-18T22:20:27.869Z,54.27
2022-12-18T22:22:55.749Z,51.77
2022-12-18T22:25:22.065Z,52.64
2022-12-18T22:28:07.228Z,54.15
2022-12-18T22:30:34.175Z,55.16
2022-12-18T22:33:01.174Z,57.51
2022-12-18T22:35:27.491Z,58.36
2022-12-18T22:37:54.019Z,59.07
2022-12-18T22:40:27.415Z,59.30
2022-12-18T22:42:54.156Z,59.79
2022-12-18T22:45:20.547Z,60.91
2022-12-18T22:47:46.919Z,61.78
2022-12-18T22:50:14.111Z,61.77
2022-12-18T22:52:40.484Z,61.91
2022-12-18T22:55:07.704Z,62.24
2022-12-18T22:57:34.236Z,66.14
2022-12-18T23:00:01.812Z,69.73
2022-12-18T23:02:28.465Z,63.11
2022-12-18T23:04:55.041Z,54.08
2022-12-18T23:07:21.568Z,51.11
2022-12-18T23:09:50.031Z,51.99
2022-12-18T23:12:19.072Z,53.35
2022-12-18T23:14:47.927Z,55.35
2022-12-18T23:17:14.389Z,56.45
2022-12-18T23:19:47.106Z,57.36
2022-12-18T23:22:16.457Z,58.24
2022-12-18T23:24:42.964Z,58.95
2022-12-18T23:27:11.841Z,59.78
2022-12-18T23:29:39.874Z,60.50
2022-12-18T23:32:07.041Z,60.94
2022-12-18T23:34:33.406Z,61.52
2022-12-18T23:37:00.383Z,64.96
2022-12-18T23:39:30.158Z,68.45
2022-12-18T23:41:57.806Z,61.07
2022-12-18T23:44:24.734Z,53.79
2022-12-18T23:46:51.103Z,51.55
2022-12-18T23:49:17.850Z,52.40
2022-12-18T23:51:44.209Z,53.79
2022-12-18T23:54:10.634Z,54.94
2022-12-18T23:56:37.075Z,56.13
2022-12-18T23:59:03.508Z,57.21
